This is the latest recevied weather packets stored in our database for station/object KB4RFE. If no packets are shown the sender has not sent any weather packets the latest 1 day(s).
| Time | Temp. | Humidity | Pressure | Rain* | Wind** | Luminosity | Snow |
|---|---|---|---|---|---|---|---|
| 1777986031 | 21.11° C | 64% | 1020.6 hPa | 0 mm | 3.13 m/s, 229° | 255 W/m² | - |
| 1777985727 | 21.11° C | 65% | 1020.8 hPa | 0 mm | 2.24 m/s, 224° | 80 W/m² | - |
| 1777985424 | 21.11° C | 66% | 1020.7 hPa | 0 mm | 1.79 m/s, 228° | 53 W/m² | - |
| 1777985121 | 21.11° C | 64% | 1020.7 hPa | 0 mm | 3.58 m/s, 214° | 53 W/m² | - |
| 1777984817 | 20.56° C | 67% | 1020.8 hPa | 0 mm | 1.79 m/s, 259° | 52 W/m² | - |
| 1777984514 | 20.56° C | 67% | 1020.8 hPa | 0 mm | 2.24 m/s, 241° | 48 W/m² | - |
| 1777984209 | 20.56° C | 69% | 1020.8 hPa | 0 mm | 2.68 m/s, 218° | 47 W/m² | - |
| 1777983907 | 20° C | 74% | 1020.8 hPa | 0 mm | 0.89 m/s, 246° | 45 W/m² | - |
| 1777983604 | 19.44° C | 75% | 1020.6 hPa | 0 mm | 1.79 m/s, 224° | 44 W/m² | - |
| 1777983300 | 18.33° C | 81% | 1020.7 hPa | 0 mm | 0.89 m/s, 249° | 42 W/m² | - |
| 1777982996 | 17.22° C | 89% | 1020.8 hPa | 0 mm | 0.89 m/s, 324° | 41 W/m² | - |
| 1777982693 | 16.67° C | 91% | 1020.6 hPa | 0 mm | 0.45 m/s, 343° | 32 W/m² | - |
| 1777982392 | 16.67° C | 92% | 1020.6 hPa | 0 mm | 0.89 m/s, 348° | 42 W/m² | - |
| 1777982089 | 16.11° C | 92% | 1020.5 hPa | 0 mm | 0.89 m/s, 351° | 37 W/m² | - |
| 1777981787 | 15.56° C | 92% | 1020.2 hPa | 0.51 mm | 0.89 m/s, 349° | 38 W/m² | - |
| 1777981483 | 15.56° C | 93% | 1020.4 hPa | 0.51 mm | 0.89 m/s, 7° | 35 W/m² | - |
| 1777981180 | 15.56° C | 93% | 1020.3 hPa | 0 mm | 0.89 m/s, 349° | 34 W/m² | - |
| 1777980876 | 15° C | 93% | 1020.3 hPa | 0 mm | 0.89 m/s, 344° | 40 W/m² | - |
| 1777980572 | 15° C | 94% | 1020.4 hPa | 0 mm | 0.89 m/s, 349° | 31 W/m² | - |
| 1777980270 | 14.44° C | 94% | 1020.1 hPa | 0 mm | 0.89 m/s, 2° | 29 W/m² | - |
| 1777979965 | 14.44° C | 94% | 1020.1 hPa | 0 mm | 0.89 m/s, 4° | 27 W/m² | - |
| 1777979660 | 14.44° C | 94% | 1020 hPa | 0 mm | 0.89 m/s, 2° | 25 W/m² | - |
| 1777979357 | 13.89° C | 94% | 1020 hPa | 0 mm | 1.34 m/s, 356° | 23 W/m² | - |
| 1777979054 | 13.89° C | 94% | 1020 hPa | 0 mm | 1.34 m/s, 351° | 20 W/m² | - |
| 1777978750 | 13.89° C | 94% | 1019.9 hPa | 0 mm | 1.34 m/s, 346° | 18 W/m² | - |
* Rain latest hour (hover to see other rain measurements)
** Current wind speed in m/s (hover to see current wind gust speed)